Time;durP1;ratioP1;P1;durP2;ratioP2;P2;SDS_P1;SDS_P2;PMS_P1;PMS_P2;Temp;Humidity;BMP_temperature;BMP_pressure;BME280_temperature;BME280_humidity;BME280_pressure;Samples;Min_cycle;Max_cycle;Signal;HPM_P1;HPM_P2
2021/10/18 00:00:21;;;;;;;14.63;12.10;;;;;;;5.24;100.00;96433.50;5035688;28;24416;-78
2021/10/18 00:02:48;;;;;;;19.45;12.73;;;;;;;5.17;100.00;96430.28;5035749;28;24783;-78
2021/10/18 00:05:15;;;;;;;20.10;11.90;;;;;;;5.14;100.00;96444.94;5035582;28;24452;-78
2021/10/18 00:07:42;;;;;;;13.45;10.93;;;;;;;5.02;100.00;96438.44;5035115;28;24424;-77
2021/10/18 00:10:10;;;;;;;16.33;10.80;;;;;;;4.98;100.00;96447.97;5035737;28;24482;-78
2021/10/18 00:12:36;;;;;;;11.88;9.40;;;;;;;4.89;100.00;96442.25;5035382;28;24438;-78
2021/10/18 00:15:06;;;;;;;14.15;9.75;;;;;;;4.84;100.00;96439.81;5035168;28;24412;-77
2021/10/18 00:17:32;;;;;;;11.57;9.52;;;;;;;4.78;100.00;96451.13;5034720;28;24523;-78
2021/10/18 00:19:59;;;;;;;13.70;10.55;;;;;;;4.73;100.00;96454.69;5035129;28;24426;-78
2021/10/18 00:22:25;;;;;;;12.20;10.30;;;;;;;4.77;100.00;96451.16;5033842;28;24466;-78
2021/10/18 00:24:52;;;;;;;12.80;10.63;;;;;;;4.68;100.00;96447.13;5034990;28;24443;-78
2021/10/18 00:27:18;;;;;;;11.15;9.88;;;;;;;4.76;100.00;96444.34;5034748;28;24431;-78
2021/10/18 00:29:45;;;;;;;10.77;9.60;;;;;;;4.73;100.00;96442.69;5034875;28;24474;-78
2021/10/18 00:32:13;;;;;;;10.45;9.45;;;;;;;4.87;100.00;96436.34;5034687;28;24458;-77
2021/10/18 00:34:39;;;;;;;11.32;10.23;;;;;;;4.95;100.00;96447.22;5034490;28;24435;-78
2021/10/18 00:37:05;;;;;;;11.18;9.98;;;;;;;5.08;100.00;96433.97;5034658;28;24852;-78
2021/10/18 00:39:32;;;;;;;11.52;10.30;;;;;;;5.10;100.00;96447.59;5034664;28;24474;-77
2021/10/18 00:41:58;;;;;;;14.27;10.30;;;;;;;5.08;100.00;96444.25;5037033;28;24431;-79
2021/10/18 00:44:25;;;;;;;17.65;11.02;;;;;;;5.01;100.00;96445.31;5039060;28;24989;-77
2021/10/18 00:46:51;;;;;;;11.50;9.93;;;;;;;5.18;100.00;96437.06;5037181;28;24420;-79
2021/10/18 00:49:19;;;;;;;11.43;9.93;;;;;;;5.16;100.00;96438.88;5035816;28;24419;-77
2021/10/18 00:51:46;;;;;;;15.05;11.85;;;;;;;5.08;100.00;96448.53;5035593;28;24833;-77
2021/10/18 00:54:12;;;;;;;15.27;11.65;;;;;;;5.05;100.00;96459.72;5035192;28;25015;-78
2021/10/18 00:56:39;;;;;;;17.08;10.98;;;;;;;4.89;100.00;96453.34;5034942;28;24436;-78
2021/10/18 00:59:07;;;;;;;26.38;11.70;;;;;;;4.87;100.00;96459.44;5034541;28;24945;-78
2021/10/18 01:01:34;;;;;;;17.33;11.93;;;;;;;4.94;100.00;96448.09;5034711;28;24433;-78
2021/10/18 01:04:03;;;;;;;13.80;10.73;;;;;;;5.04;100.00;96450.34;5034416;28;24462;-78
2021/10/18 01:06:31;;;;;;;15.95;10.88;;;;;;;5.03;100.00;96445.25;5034117;28;24436;-79
2021/10/18 01:08:58;;;;;;;13.10;11.05;;;;;;;5.10;100.00;96447.59;5034385;28;24435;-79
2021/10/18 01:11:24;;;;;;;12.43;10.90;;;;;;;5.15;100.00;96450.00;5034104;28;24415;-77
2021/10/18 01:13:51;;;;;;;13.77;11.10;;;;;;;5.05;100.00;96454.59;5031579;28;24508;-77
2021/10/18 01:16:17;;;;;;;13.17;10.83;;;;;;;5.15;100.00;96454.31;5030807;28;24427;-78
2021/10/18 01:18:44;;;;;;;12.10;10.80;;;;;;;5.18;100.00;96457.63;5031251;28;24428;-77
2021/10/18 01:21:12;;;;;;;11.38;10.00;;;;;;;5.31;100.00;96446.09;5031204;28;24787;-77
2021/10/18 01:23:38;;;;;;;13.82;11.23;;;;;;;5.29;100.00;96452.16;5031140;28;24439;-77
2021/10/18 01:26:05;;;;;;;12.93;11.48;;;;;;;5.18;100.00;96449.91;5031131;28;24447;-77
2021/10/18 01:28:31;;;;;;;12.20;10.77;;;;;;;5.06;100.00;96442.59;5031018;28;24902;-78
2021/10/18 01:30:58;;;;;;;20.42;12.40;;;;;;;5.08;100.00;96451.94;5030956;28;24431;-78
2021/10/18 01:33:24;;;;;;;14.13;11.30;;;;;;;5.03;100.00;96437.53;5031109;28;24450;-78
2021/10/18 01:35:51;;;;;;;17.75;11.40;;;;;;;4.98;100.00;96445.41;5029791;28;24501;-78
2021/10/18 01:38:19;;;;;;;16.58;11.20;;;;;;;5.00;100.00;96443.59;5030796;28;24499;-77
2021/10/18 01:40:45;;;;;;;15.07;10.57;;;;;;;4.98;100.00;96439.44;5030695;28;24506;-77
2021/10/18 01:43:11;;;;;;;30.75;11.20;;;;;;;4.94;100.00;96438.69;5030626;28;24427;-77
2021/10/18 01:45:38;;;;;;;12.15;10.23;;;;;;;5.06;100.00;96429.75;5029975;28;24447;-77
2021/10/18 01:48:05;;;;;;;30.58;10.63;;;;;;;4.95;100.00;96437.78;5030627;28;24428;-77
2021/10/18 01:50:32;;;;;;;19.77;10.88;;;;;;;5.02;100.00;96441.00;5030578;28;24408;-78
2021/10/18 01:52:58;;;;;;;20.30;11.20;;;;;;;5.09;100.00;96435.63;5030487;28;25064;-78
2021/10/18 01:55:26;;;;;;;16.15;10.68;;;;;;;5.14;100.00;96432.09;5030188;28;24419;-77
2021/10/18 01:57:53;;;;;;;16.70;10.57;;;;;;;5.07;100.00;96442.53;5030377;28;24420;-78
2021/10/18 02:00:20;;;;;;;34.65;10.75;;;;;;;4.94;100.00;96438.69;5030087;28;24439;-78
2021/10/18 02:02:47;;;;;;;16.80;10.35;;;;;;;5.07;100.00;96442.53;5030456;28;24415;-78
2021/10/18 02:05:14;;;;;;;19.88;10.45;;;;;;;4.99;100.00;96449.63;5029766;28;24478;-77
2021/10/18 02:07:42;;;;;;;27.08;10.77;;;;;;;4.91;100.00;96445.63;5030356;28;24837;-77
2021/10/18 02:10:08;;;;;;;14.35;10.80;;;;;;;5.04;100.00;96442.66;5030713;28;24474;-77
2021/10/18 02:12:36;;;;;;;50.23;10.17;;;;;;;4.92;100.00;96443.00;5030508;28;24794;-78
2021/10/18 02:15:03;;;;;;;44.85;10.30;;;;;;;4.96;100.00;96442.03;5029846;28;24427;-78
2021/10/18 02:17:29;;;;;;;16.25;9.85;;;;;;;4.91;100.00;96440.50;5030329;28;24428;-77
2021/10/18 02:19:56;;;;;;;15.75;9.75;;;;;;;4.85;100.00;96439.78;5030268;28;24431;-77
2021/10/18 02:22:22;;;;;;;27.17;9.02;;;;;;;4.72;100.00;96440.19;5030397;28;24430;-79
2021/10/18 02:24:49;;;;;;;11.35;9.27;;;;;;;4.85;100.00;96436.38;5029937;28;24439;-78
2021/10/18 02:27:15;;;;;;;27.80;9.35;;;;;;;4.88;100.00;96438.00;5029994;28;24782;-78
2021/10/18 02:29:43;;;;;;;21.60;9.18;;;;;;;4.82;100.00;96437.31;5030351;28;24426;-78
2021/10/18 02:32:09;;;;;;;16.30;9.63;;;;;;;4.82;100.00;96426.19;5030246;28;24412;-78
2021/10/18 02:34:36;;;;;;;30.15;9.02;;;;;;;4.80;100.00;96422.84;5030111;28;24422;-78
2021/10/18 02:37:02;;;;;;;24.50;9.85;;;;;;;4.75;100.00;96425.56;5030162;28;24424;-77
2021/10/18 02:39:29;;;;;;;10.50;9.50;;;;;;;4.77;100.00;96422.94;5030339;28;24499;-78
2021/10/18 02:41:55;;;;;;;14.23;9.93;;;;;;;4.87;100.00;96426.91;5029993;28;24419;-78
2021/10/18 02:44:22;;;;;;;15.87;9.27;;;;;;;4.84;100.00;96419.28;5030203;28;24489;-78
2021/10/18 02:46:49;;;;;;;13.20;9.13;;;;;;;4.89;100.00;96425.13;5032112;28;24515;-77
2021/10/18 02:49:16;;;;;;;27.80;9.45;;;;;;;4.73;100.00;96431.59;5033603;28;25039;-78
2021/10/18 02:51:42;;;;;;;21.23;8.88;;;;;;;4.73;100.00;96440.13;5033594;28;24490;-78
2021/10/18 02:54:10;;;;;;;40.03;9.85;;;;;;;4.57;100.00;96444.88;5033557;28;24865;-77
2021/10/18 02:56:36;;;;;;;21.13;8.82;;;;;;;4.63;100.00;96443.00;5032998;28;24783;-78
2021/10/18 02:59:03;;;;;;;39.63;10.32;;;;;;;4.59;100.00;96450.78;5033510;28;24965;-78
2021/10/18 03:01:29;;;;;;;14.38;9.95;;;;;;;4.70;100.00;96437.66;5033559;28;24423;-77
2021/10/18 03:03:57;;;;;;;56.13;9.18;;;;;;;4.61;100.00;96437.94;5033179;28;24786;-78
2021/10/18 03:06:23;;;;;;;38.67;9.40;;;;;;;4.60;100.00;96431.13;5032944;28;24929;-78
2021/10/18 03:08:50;;;;;;;36.83;9.15;;;;;;;4.59;100.00;96435.41;5033195;28;24473;-78
2021/10/18 03:11:17;;;;;;;29.23;9.55;;;;;;;4.67;100.00;96435.16;5033156;28;24427;-77
2021/10/18 03:13:43;;;;;;;35.03;9.77;;;;;;;4.53;100.00;96427.88;5033399;28;24513;-77
2021/10/18 03:16:10;;;;;;;30.13;8.97;;;;;;;4.54;100.00;96429.56;5032830;28;24444;-78
2021/10/18 03:18:36;;;;;;;13.33;8.30;;;;;;;4.60;100.00;96429.41;5033020;28;25041;-77
2021/10/18 03:21:04;;;;;;;21.57;8.70;;;;;;;4.60;100.00;96444.78;5033234;28;24427;-77
2021/10/18 03:23:31;;;;;;;9.55;7.95;;;;;;;4.70;100.00;96441.94;5032825;28;24825;-77
2021/10/18 03:25:57;;;;;;;9.48;8.48;;;;;;;4.85;100.00;96450.03;5032826;28;24448;-77
2021/10/18 03:28:23;;;;;;;34.05;8.15;;;;;;;4.61;100.00;96446.47;5032931;28;24477;-78
2021/10/18 03:30:50;;;;;;;29.27;7.50;;;;;;;4.70;100.00;96457.34;5033059;28;24416;-77
2021/10/18 03:33:16;;;;;;;24.58;9.02;;;;;;;4.75;100.00;96452.94;5032897;28;24420;-77
2021/10/18 03:35:43;;;;;;;26.13;8.30;;;;;;;4.69;100.00;96459.06;5032516;28;24511;-77
2021/10/18 03:38:11;;;;;;;10.20;8.37;;;;;;;4.83;100.00;96461.25;5032560;28;24818;-77
2021/10/18 03:40:38;;;;;;;10.85;8.65;;;;;;;4.88;100.00;96469.66;5032835;28;24424;-77
2021/10/18 03:43:04;;;;;;;13.07;8.52;;;;;;;4.89;100.00;96466.19;5032876;28;24446;-78
2021/10/18 03:45:31;;;;;;;70.85;7.65;;;;;;;4.58;100.00;96472.19;5034044;28;24446;-78
2021/10/18 03:47:57;;;;;;;58.42;7.15;;;;;;;4.56;100.00;96479.13;5034661;28;24436;-78
2021/10/18 03:50:24;;;;;;;78.28;7.28;;;;;;;4.44;100.00;96476.03;5034388;28;24412;-78
2021/10/18 03:52:50;;;;;;;43.70;7.22;;;;;;;4.52;100.00;96482.63;5033573;28;24790;-78
2021/10/18 03:55:18;;;;;;;29.38;7.55;;;;;;;4.49;100.00;96485.31;5033386;28;24482;-78
2021/10/18 03:57:44;;;;;;;18.03;8.20;;;;;;;4.49;100.00;96485.31;5031906;28;24459;-78
2021/10/18 04:00:11;;;;;;;15.43;7.35;;;;;;;4.56;100.00;96486.81;5032497;28;24423;-77
2021/10/18 04:02:38;;;;;;;25.35;7.97;;;;;;;4.60;100.00;96480.72;5032354;28;24427;-78
2021/10/18 04:05:05;;;;;;;79.78;9.20;;;;;;;4.49;100.00;96494.72;5031775;28;24411;-78
2021/10/18 04:07:31;;;;;;;58.03;7.38;;;;;;;4.45;100.00;96493.97;5032563;28;24435;-78
2021/10/18 04:09:58;;;;;;;79.15;8.52;;;;;;;4.33;100.00;96494.28;5032258;28;24486;-77
2021/10/18 04:12:26;;;;;;;38.17;6.88;;;;;;;4.33;100.00;96489.97;5032333;28;24451;-78
2021/10/18 04:14:52;;;;;;;38.97;7.07;;;;;;;4.33;100.00;96489.97;5031853;28;24438;-78
2021/10/18 04:17:19;;;;;;;28.92;6.30;;;;;;;4.32;100.00;96483.19;5031829;28;24428;-78
2021/10/18 04:19:45;;;;;;;37.78;7.72;;;;;;;4.36;100.00;96492.47;5031725;28;24458;-78
2021/10/18 04:22:12;;;;;;;20.77;7.50;;;;;;;4.36;100.00;96494.19;5031845;28;24420;-77
2021/10/18 04:24:38;;;;;;;14.27;7.20;;;;;;;4.31;100.00;96493.50;5031764;28;24423;-78
2021/10/18 04:27:05;;;;;;;17.30;6.87;;;;;;;4.40;100.00;96490.66;5031983;28;24448;-77
2021/10/18 04:29:32;;;;;;;36.33;8.05;;;;;;;4.37;100.00;96501.00;5031781;28;24478;-78
2021/10/18 04:31:59;;;;;;;84.13;7.65;;;;;;;4.18;100.00;96507.50;5031824;28;24427;-77
2021/10/18 04:34:26;;;;;;;35.22;6.68;;;;;;;4.26;100.00;96496.16;5031571;28;24837;-78
2021/10/18 04:36:52;;;;;;;29.50;6.30;;;;;;;4.28;100.00;96511.50;5031866;28;24455;-78
2021/10/18 04:39:19;;;;;;;28.05;6.82;;;;;;;4.24;100.00;96515.03;5031910;28;24431;-78
2021/10/18 04:41:45;;;;;;;14.73;5.97;;;;;;;4.24;100.00;96527.88;5031966;28;24490;-78
2021/10/18 04:44:12;;;;;;;32.90;6.43;;;;;;;4.01;100.00;96531.00;5031568;28;24844;-78
2021/10/18 04:46:40;;;;;;;19.58;6.80;;;;;;;4.05;100.00;96532.63;5031047;28;24862;-78
2021/10/18 04:49:06;;;;;;;25.17;6.90;;;;;;;4.02;100.00;96532.69;5031920;28;24420;-78
2021/10/18 04:51:33;;;;;;;18.83;6.28;;;;;;;4.11;100.00;96527.31;5040781;28;24435;-78
2021/10/18 04:54:00;;;;;;;27.73;5.68;;;;;;;4.12;100.00;96534.16;5039911;28;24431;-78
2021/10/18 04:56:26;;;;;;;41.20;6.28;;;;;;;3.99;100.00;96520.78;5041346;28;24423;-78
2021/10/18 04:58:53;;;;;;;27.50;5.95;;;;;;;3.99;100.00;96523.34;5040547;28;24791;-78
2021/10/18 05:01:20;;;;;;;28.08;5.90;;;;;;;3.92;100.00;96520.97;5035943;28;24419;-78
2021/10/18 05:03:48;;;;;;;19.48;5.85;;;;;;;4.00;100.00;96532.69;5031319;28;24486;-77
2021/10/18 05:06:15;;;;;;;21.98;6.32;;;;;;;4.05;100.00;96533.44;5030857;28;24447;-78
2021/10/18 05:08:41;;;;;;;21.75;5.55;;;;;;;3.99;100.00;96532.75;5031022;28;24420;-78
2021/10/18 05:11:08;;;;;;;21.33;5.93;;;;;;;4.03;100.00;96534.34;5035825;28;24439;-78
2021/10/18 05:13:34;;;;;;;19.05;5.72;;;;;;;4.05;100.00;96532.63;5049037;28;24844;-77
2021/10/18 05:16:01;;;;;;;13.82;5.80;;;;;;;4.05;100.00;96530.88;5050303;28;24435;-78
2021/10/18 05:18:27;;;;;;;16.58;5.20;;;;;;;4.17;100.00;96526.34;5050810;28;24484;-77
2021/10/18 05:20:55;;;;;;;21.63;5.38;;;;;;;4.02;100.00;96525.84;5050982;28;24431;-77
2021/10/18 05:23:21;;;;;;;23.92;5.85;;;;;;;4.05;100.00;96535.19;5050920;28;24424;-77
2021/10/18 05:25:48;;;;;;;27.27;6.57;;;;;;;3.98;100.00;96533.66;5050003;28;24462;-77
2021/10/18 05:28:15;;;;;;;27.23;6.33;;;;;;;3.91;100.00;96537.22;5051635;28;24426;-77
2021/10/18 05:30:41;;;;;;;33.88;5.97;;;;;;;3.93;100.00;96533.75;5050568;28;24992;-78
2021/10/18 05:33:08;;;;;;;18.95;6.28;;;;;;;3.94;100.00;96540.56;5052260;28;24431;-77
2021/10/18 05:35:36;;;;;;;31.23;6.13;;;;;;;4.01;100.00;96533.56;5052968;28;24426;-78
2021/10/18 05:38:05;;;;;;;26.75;6.25;;;;;;;4.06;100.00;96545.38;5050958;28;24440;-77
2021/10/18 05:40:31;;;;;;;16.83;6.18;;;;;;;4.13;100.00;96540.94;5050060;28;24793;-77
2021/10/18 05:42:57;;;;;;;13.65;6.47;;;;;;;4.24;100.00;96543.25;5050315;28;24468;-78
2021/10/18 05:45:24;;;;;;;23.45;6.53;;;;;;;4.19;100.00;96551.06;5049833;28;24945;-77
2021/10/18 05:47:55;;;;;;;18.52;6.60;;;;;;;4.27;100.00;96561.13;5050545;28;24455;-77
2021/10/18 05:50:23;;;;;;;14.82;6.15;;;;;;;4.23;100.00;96556.94;5050960;28;24445;-78
2021/10/18 05:52:49;;;;;;;14.35;6.47;;;;;;;4.29;100.00;96561.91;5051281;28;24426;-78
2021/10/18 05:55:17;;;;;;;46.58;7.15;;;;;;;4.17;100.00;96545.13;5050534;28;24632;-77
2021/10/18 05:57:53;;;;;;;30.60;6.43;;;;;;;4.24;100.00;96553.50;5050267;28;24450;-78
2021/10/18 06:00:21;;;;;;;11.55;6.35;;;;;;;4.31;100.00;96565.28;5050139;28;24559;-78
2021/10/18 06:02:49;;;;;;;21.20;7.25;;;;;;;4.41;100.00;96565.88;5050953;28;24473;-77
2021/10/18 06:05:16;;;;;;;25.58;6.50;;;;;;;4.24;100.00;96564.59;5049961;28;25003;-77
2021/10/18 06:07:42;;;;;;;20.55;6.40;;;;;;;4.37;100.00;96565.13;5050073;28;24988;-74
2021/10/18 06:10:10;;;;;;;29.23;7.00;;;;;;;4.36;100.00;96566.84;5049440;28;24481;-77
2021/10/18 06:12:39;;;;;;;34.85;6.40;;;;;;;4.22;100.00;96571.47;5030453;28;24427;-77
2021/10/18 06:15:08;;;;;;;12.13;6.65;;;;;;;4.30;100.00;96578.97;5030941;28;24412;-77
2021/10/18 06:17:35;;;;;;;21.42;6.50;;;;;;;4.11;100.00;96573.47;5030431;28;24470;-78
2021/10/18 06:20:01;;;;;;;39.85;7.15;;;;;;;3.98;100.00;96577.22;5030577;28;24419;-78
2021/10/18 06:22:28;;;;;;;30.02;6.45;;;;;;;4.03;100.00;96580.50;5034138;28;24427;-77
2021/10/18 06:24:54;;;;;;;27.40;6.55;;;;;;;4.04;100.00;96577.03;5037353;28;24790;-77
2021/10/18 06:27:23;;;;;;;22.58;6.88;;;;;;;4.03;100.00;96594.16;5053873;28;24821;-77
2021/10/18 06:29:52;;;;;;;16.95;6.55;;;;;;;4.15;100.00;96594.72;5054170;28;24538;-77
2021/10/18 06:32:18;;;;;;;21.67;7.30;;;;;;;4.15;100.00;96594.72;5053929;28;24435;-77
2021/10/18 06:34:45;;;;;;;31.90;7.50;;;;;;;3.97;100.00;96603.69;5054025;28;24465;-77
2021/10/18 06:37:11;;;;;;;28.02;7.53;;;;;;;3.86;100.00;96602.25;5053509;28;24430;-77
2021/10/18 06:39:38;;;;;;;16.65;7.22;;;;;;;3.96;100.00;96600.28;5054356;28;24419;-77
2021/10/18 06:42:04;;;;;;;21.08;7.18;;;;;;;4.00;100.00;96601.91;5037278;28;24570;-78
2021/10/18 06:44:31;;;;;;;17.57;6.73;;;;;;;4.05;100.00;96605.22;5054031;28;24493;-77
2021/10/18 06:46:58;;;;;;;41.60;7.07;;;;;;;3.96;100.00;96596.91;5054192;28;25042;-77
2021/10/18 06:49:25;;;;;;;38.55;8.13;;;;;;;3.92;100.00;96608.94;5044147;28;24428;-77
2021/10/18 06:51:54;;;;;;;19.67;7.05;;;;;;;4.05;100.00;96607.78;5039629;28;24515;-77
2021/10/18 06:54:21;;;;;;;31.20;6.78;;;;;;;4.11;100.00;96607.63;5039529;28;24475;-77
2021/10/18 06:56:47;;;;;;;21.33;7.43;;;;;;;4.01;100.00;96618.16;5034904;28;24505;-77
2021/10/18 06:59:15;;;;;;;12.20;6.78;;;;;;;4.06;100.00;96622.28;5034456;28;24423;-77
2021/10/18 07:01:42;;;;;;;57.42;8.98;;;;;;;3.99;100.00;96617.34;5033477;28;24939;-77
2021/10/18 07:04:10;;;;;;;20.73;7.10;;;;;;;4.05;100.00;96620.59;5033692;28;24500;-77
2021/10/18 07:06:37;;;;;;;21.38;7.50;;;;;;;4.12;100.00;96627.28;5032800;28;24456;-77
2021/10/18 07:09:04;;;;;;;15.80;6.53;;;;;;;4.17;100.00;96627.16;5033618;28;24423;-77
2021/10/18 07:11:30;;;;;;;11.65;6.93;;;;;;;4.24;100.00;96625.28;5045064;28;24435;-77
2021/10/18 07:13:57;;;;;;;16.08;8.07;;;;;;;4.22;100.00;96624.47;5053569;28;24434;-77
2021/10/18 07:16:23;;;;;;;42.00;7.82;;;;;;;4.12;100.00;96622.16;5052722;28;24438;-77
2021/10/18 07:18:49;;;;;;;22.63;6.93;;;;;;;4.22;100.00;96622.75;5053428;28;24454;-77
2021/10/18 07:21:17;;;;;;;16.08;6.57;;;;;;;4.31;100.00;96614.00;5053613;28;24485;-77
2021/10/18 07:23:45;;;;;;;17.10;7.20;;;;;;;4.33;100.00;96620.75;5053185;28;24427;-77
2021/10/18 07:26:12;;;;;;;26.40;8.43;;;;;;;4.31;100.00;96621.72;5052536;28;24425;-77
2021/10/18 07:28:38;;;;;;;26.83;7.90;;;;;;;4.45;100.00;96622.22;5052799;28;24423;-76
2021/10/18 07:31:05;;;;;;;23.02;8.18;;;;;;;4.41;100.00;96632.56;5052888;28;24422;-77
2021/10/18 07:33:31;;;;;;;24.40;8.30;;;;;;;4.36;100.00;96628.38;5051197;28;24778;-76
2021/10/18 07:36:06;;;;;;;32.78;8.13;;;;;;;4.27;100.00;96640.63;5052536;28;24435;-77
2021/10/18 07:38:35;;;;;;;16.35;7.35;;;;;;;4.39;100.00;96637.75;5052738;28;24434;-76
2021/10/18 07:41:01;;;;;;;26.00;6.82;;;;;;;4.41;100.00;96645.38;5052284;28;24430;-77
2021/10/18 07:43:27;;;;;;;29.02;6.57;;;;;;;4.36;100.00;96643.78;5052611;28;24431;-77
2021/10/18 07:45:54;;;;;;;33.30;7.45;;;;;;;4.29;100.00;96649.09;5052245;28;24423;-77
2021/10/18 07:48:20;;;;;;;21.95;6.65;;;;;;;4.26;100.00;96655.13;5052401;28;24462;-77
2021/10/18 07:50:47;;;;;;;27.98;7.32;;;;;;;4.27;100.00;96651.72;5053094;28;24435;-77
2021/10/18 07:53:13;;;;;;;23.73;7.10;;;;;;;4.29;100.00;96651.66;5052473;28;24442;-77
2021/10/18 07:55:41;;;;;;;16.88;5.78;;;;;;;4.38;100.00;96655.75;5051780;28;24431;-77
2021/10/18 07:58:07;;;;;;;23.10;7.05;;;;;;;4.40;100.00;96656.53;5052320;28;25010;-77
2021/10/18 08:00:34;;;;;;;16.30;5.97;;;;;;;4.42;100.00;96657.34;5052254;28;24784;-77
2021/10/18 08:03:00;;;;;;;14.07;6.63;;;;;;;4.53;100.00;96650.22;5052545;28;24407;-77
2021/10/18 08:05:27;;;;;;;11.33;7.00;;;;;;;4.52;100.00;96648.53;5052316;28;24669;-77
2021/10/18 08:07:55;;;;;;;24.17;6.63;;;;;;;4.58;100.00;96651.78;5052114;28;24459;-77
2021/10/18 08:10:25;;;;;;;23.65;5.70;;;;;;;4.43;100.00;96662.44;5049343;28;24434;-77
2021/10/18 08:12:54;;;;;;;18.92;6.50;;;;;;;4.50;100.00;96658.00;5032184;28;24530;-76
2021/10/18 08:15:21;;;;;;;8.63;6.45;;;;;;;4.61;100.00;96654.28;5031598;28;24419;-77
2021/10/18 08:17:48;;;;;;;9.10;6.57;;;;;;;4.60;100.00;96649.19;5032165;28;24458;-78
2021/10/18 08:20:14;;;;;;;7.57;6.78;;;;;;;4.75;100.00;96660.81;5032088;28;24431;-76
2021/10/18 08:22:41;;;;;;;10.30;7.18;;;;;;;4.91;100.00;96654.38;5031954;28;24474;-77
2021/10/18 08:25:08;;;;;;;8.60;7.45;;;;;;;4.78;100.00;96661.56;5039688;28;24437;-77
2021/10/18 08:27:36;;;;;;;11.43;7.32;;;;;;;4.75;100.00;96661.63;5051634;28;24455;-76
2021/10/18 08:30:04;;;;;;;13.38;7.10;;;;;;;4.76;100.00;96660.75;5051634;28;24430;-77
2021/10/18 08:32:30;;;;;;;8.05;7.25;;;;;;;4.86;100.00;96663.94;5052079;28;24423;-76
2021/10/18 08:34:57;;;;;;;10.63;7.20;;;;;;;4.78;100.00;96666.69;5051284;28;24992;-77
2021/10/18 08:38:14;;;;;;;15.00;7.53;;;;;;;4.76;100.00;96660.75;5051573;28;24988;-77
2021/10/18 08:40:11;;;;;;;9.18;8.20;;;;;;;4.90;100.00;96657.00;5050710;28;24512;-77
2021/10/18 08:42:56;;;;;;;10.88;7.60;;;;;;;4.94;100.00;96661.16;5051741;28;24480;-77
2021/10/18 08:45:24;;;;;;;7.90;7.10;;;;;;;5.15;100.00;96665.69;5051073;28;24476;-78
2021/10/18 08:47:53;;;;;;;8.25;7.45;;;;;;;5.05;100.00;96664.28;5052114;28;24458;-77
2021/10/18 08:50:20;;;;;;;10.43;7.33;;;;;;;4.93;100.00;96670.59;5051203;28;24485;-77
2021/10/18 08:52:48;;;;;;;13.13;7.07;;;;;;;4.99;100.00;96672.97;5051162;28;24422;-76
2021/10/18 08:55:14;;;;;;;10.48;7.18;;;;;;;4.97;100.00;96668.75;5052126;28;24473;-76
2021/10/18 08:57:41;;;;;;;9.10;7.32;;;;;;;4.90;100.00;96674.97;5051348;28;24415;-76
2021/10/18 09:00:28;;;;;;;8.52;7.72;;;;;;;5.09;100.00;96677.00;5051348;28;24430;-77
2021/10/18 09:02:57;;;;;;;11.13;7.68;;;;;;;5.04;100.00;96681.41;5050432;28;24427;-77
2021/10/18 09:05:24;;;;;;;10.73;7.20;;;;;;;5.09;100.00;96682.13;5045663;28;24551;-77
2021/10/18 09:07:50;;;;;;;7.65;6.95;;;;;;;5.24;100.00;96683.44;5051859;28;24458;-76
2021/10/18 09:10:17;;;;;;;10.25;7.70;;;;;;;5.24;100.00;96682.59;5052848;28;24485;-77
2021/10/18 09:12:46;;;;;;;9.55;7.78;;;;;;;5.17;100.00;96681.09;5052117;28;24448;-77
2021/10/18 09:15:22;;;;;;;7.78;7.07;;;;;;;5.40;100.00;96675.31;5053933;28;24544;-77
2021/10/18 09:17:53;;;;;;;7.82;7.03;;;;;;;5.47;100.00;96675.09;5052306;28;24432;-77
2021/10/18 09:20:26;;;;;;;10.82;7.70;;;;;;;5.55;100.00;96678.28;5053907;28;24477;-78
2021/10/18 09:23:24;;;;;;;7.93;7.13;;;;;;;5.54;100.00;96686.06;5052762;28;22698;-78
2021/10/18 09:25:53;;;;;;;8.15;6.97;;;;;;;5.52;100.00;96683.50;5050527;28;24434;-77
2021/10/18 09:28:24;;;;;;;7.78;6.97;;;;;;;5.64;100.00;96677.19;5050732;28;24550;-77
2021/10/18 09:30:51;;;;;;;8.98;8.07;;;;;;;5.62;100.00;96685.84;5052376;28;24427;-77
2021/10/18 09:33:21;;;;;;;8.93;7.57;;;;;;;5.77;100.00;96672.53;5052053;28;24419;-77
2021/10/18 09:35:50;;;;;;;7.97;7.22;;;;;;;5.76;100.00;96666.56;5052323;28;24533;-77
2021/10/18 09:38:29;;;;;;;7.60;6.90;;;;;;;6.03;100.00;96672.63;5054209;28;24439;-79
2021/10/18 09:41:28;;;;;;;9.13;6.63;;;;;;;6.05;100.00;96662.31;5054756;28;24782;-78
2021/10/18 09:43:58;;;;;;;21.05;7.47;;;;;;;6.08;100.00;96664.75;5051154;28;24442;-77
2021/10/18 09:46:34;;;;;;;7.53;6.82;;;;;;;6.17;100.00;96667.06;5051795;28;24427;-78
2021/10/18 10:51:28;;;;;;;6.45;5.78;;;;;;;8.28;100.00;96668.25;5035432;28;24766;-79
2021/10/18 10:53:59;;;;;;;6.65;5.80;;;;;;;8.57;100.00;96664.56;5036237;28;24423;-79
2021/10/18 10:56:30;;;;;;;6.57;5.60;;;;;;;8.32;100.00;96660.31;5035251;28;24428;-79
2021/10/18 10:59:12;;;;;;;6.80;5.97;;;;;;;8.24;100.00;96659.81;5036512;28;20834;-80
2021/10/18 11:01:43;;;;;;;6.13;5.25;;;;;;;8.62;100.00;96654.88;5036370;28;20644;-79
2021/10/18 11:04:42;;;;;;;5.13;4.72;;;;;;;8.70;100.00;96648.47;5036384;28;24446;-80
2021/10/18 11:07:11;;;;;;;8.18;5.70;;;;;;;8.53;100.00;96647.47;5037515;28;20770;-78
2021/10/18 11:09:40;;;;;;;7.80;5.32;;;;;;;8.36;100.00;96654.13;5039672;28;20802;-78
2021/10/18 11:12:07;;;;;;;5.88;5.10;;;;;;;8.44;100.00;96644.38;5038982;28;24443;-78
2021/10/18 11:14:35;;;;;;;6.65;5.55;;;;;;;8.98;100.00;96651.66;5038802;28;21157;-79
2021/10/18 11:17:02;;;;;;;6.47;5.38;;;;;;;9.00;100.00;96637.75;5039563;28;20772;-79
2021/10/18 11:19:29;;;;;;;5.68;4.72;;;;;;;8.89;100.00;96642.53;5039745;28;21154;-78
2021/10/18 11:21:57;;;;;;;7.30;5.55;;;;;;;9.18;100.00;96634.38;5038975;28;24983;-79
2021/10/18 11:24:24;;;;;;;6.90;5.63;;;;;;;9.29;100.00;96635.66;5041842;28;20828;-79
2021/10/18 11:26:55;;;;;;;6.15;5.35;;;;;;;9.60;100.00;96640.31;5058574;28;21200;-79
2021/10/18 11:29:31;;;;;;;6.90;5.32;;;;;;;9.48;100.00;96633.09;5059158;28;20683;-79
2021/10/18 11:32:08;;;;;;;7.97;5.28;;;;;;;9.49;100.00;96629.59;5056492;28;20716;-79
2021/10/18 11:34:34;;;;;;;7.45;5.70;;;;;;;9.96;100.00;96624.03;5055108;28;21127;-80
2021/10/18 11:37:01;;;;;;;6.85;5.68;;;;;;;9.90;100.00;96619.97;5055908;28;20825;-79
2021/10/18 11:39:30;;;;;;;6.00;5.30;;;;;;;9.93;100.00;96622.41;5056996;28;20759;-78
2021/10/18 11:42:08;;;;;;;6.35;5.45;;;;;;;9.94;100.00;96624.94;5055526;28;20808;-80
2021/10/18 11:44:50;;;;;;;8.05;5.45;;;;;;;9.82;100.00;96612.56;5058828;28;20645;-78
2021/10/18 11:47:26;;;;;;;6.90;5.47;;;;;;;9.87;100.00;96620.13;5053392;28;21270;-78
2021/10/18 11:50:07;;;;;;;6.10;5.35;;;;;;;9.95;100.00;96610.25;5057090;28;21184;-79
2021/10/18 11:52:34;;;;;;;5.87;5.37;;;;;;;10.87;100.00;96606.63;5054139;28;20873;-78
2021/10/18 11:55:01;;;;;;;6.43;5.37;;;;;;;10.46;100.00;96600.09;5056300;28;20767;-78
2021/10/18 11:57:28;;;;;;;6.47;5.27;;;;;;;11.24;100.00;96603.91;5058654;28;24427;-79
2021/10/18 11:59:54;;;;;;;6.65;5.38;;;;;;;11.54;100.00;96594.50;5054035;28;21283;-78
2021/10/18 12:02:21;;;;;;;7.28;5.25;;;;;;;11.47;97.42;96592.34;5053483;28;24446;-78
2021/10/18 12:04:57;;;;;;;7.88;6.18;;;;;;;11.38;100.00;96591.91;5052874;28;24415;-78
2021/10/18 12:07:44;;;;;;;5.63;5.00;;;;;;;11.78;100.00;96589.75;5052234;28;20707;-78
2021/10/18 12:10:12;;;;;;;6.68;5.22;;;;;;;11.48;97.92;96599.19;5052075;28;20767;-78
2021/10/18 12:12:39;;;;;;;6.57;5.90;;;;;;;11.38;100.00;96591.03;5053550;28;24494;-78
2021/10/18 12:15:06;;;;;;;5.83;5.10;;;;;;;11.29;100.00;96587.19;5054554;28;24434;-77
2021/10/18 12:17:34;;;;;;;7.63;5.22;;;;;;;11.25;99.56;96583.09;5054023;28;24477;-77
2021/10/18 12:20:02;;;;;;;6.20;5.22;;;;;;;11.28;100.00;96584.69;5053061;28;24466;-78
2021/10/18 12:22:29;;;;;;;6.32;5.63;;;;;;;11.45;100.00;96582.03;5052931;28;24430;-78
2021/10/18 12:25:00;;;;;;;7.30;5.63;;;;;;;11.73;99.80;96580.56;5054211;28;24443;-78
2021/10/18 12:27:27;;;;;;;7.22;5.70;;;;;;;11.45;100.00;96573.41;5055527;28;24829;-78
2021/10/18 12:29:54;;;;;;;5.93;5.20;;;;;;;11.49;100.00;96567.97;5052432;28;24469;-78